Latest Weather Observations for Kyabram

IDV60801

Issued at 9:12 pm EST Wednesday 17 July 2024 (issued every 10 minutes, with the page automatically refreshed every 10 minutes)

About weather observations | Map of weather stations | Latest weather observations for VIC | Other Formats
Station Details ID: 080091 Name: KYABRAM Lat: -36.34 Lon: 145.06 Height: 105.0 m
Data from the previous 72 hours. | See also: Recent months at Kyabram
Date/Time
EST
Temp
°C
App
Temp
°C
Dew
Point
°C
Rel
Hum
%
Delta-T
°C
Wind Press
QNH
hPa
Press
MSL
hPa
Rain since
9am
mm
Dir  Spd
km/h
Gust
km/h
Spd
kts
Gust
kts
17/09:00pm 9.4 7.0 8.8 96 0.3 S 11 15 6 8 - - 0.0
17/08:30pm 9.6 7.8 9.3 98 0.1 SSW 9 13 5 7 - - 0.0
17/08:00pm 9.5 7.6 9.0 97 0.2 SSW 9 11 5 6 - - 0.0
17/07:30pm 10.0 8.4 8.9 93 0.5 SSW 7 11 4 6 - - 0.0
17/07:00pm 11.2 9.1 9.6 90 0.8 SSW 11 15 6 8 - - 0.0
17/06:30pm 11.6 10.1 9.3 86 1.2 SSW 7 9 4 5 - - 0.0
17/06:00pm 12.1 10.8 9.3 83 1.4 WSW 6 7 3 4 - - 0.0
17/05:30pm 12.9 11.7 9.5 80 1.7 SSW 6 9 3 5 - - 0.0
17/05:00pm 13.6 12.1 9.3 75 2.2 SW 7 13 4 7 - - 0.0
17/04:30pm 13.8 11.8 8.8 72 2.5 SSW 9 15 5 8 - - 0.0
17/04:00pm 14.6 12.9 8.3 66 3.2 SW 7 11 4 6 - - 0.0
17/03:30pm 15.1 13.0 8.3 64 3.4 SW 9 15 5 8 - - 0.0
17/03:00pm 14.9 12.3 7.9 63 3.5 S 11 15 6 8 - - 0.0
17/02:30pm 15.1 12.4 8.8 66 3.2 S 13 20 7 11 - - 0.0
17/02:00pm 15.0 11.1 7.3 60 3.8 S 17 22 9 12 - - 0.0
17/01:30pm 14.5 11.3 8.5 67 3.0 SSW 15 20 8 11 - - 0.0
17/01:00pm 13.8 11.5 9.0 73 2.4 SSW 11 15 6 8 - - 0.0
17/12:30pm 13.4 10.3 8.9 74 2.3 SSW 15 20 8 11 - - 0.0
17/12:00pm 13.1 9.7 9.0 76 2.1 SSW 17 24 9 13 - - 0.0
17/11:30am 13.0 10.3 9.1 77 2.0 SSW 13 20 7 11 - - 0.0
17/11:00am 12.4 9.8 9.4 82 1.5 SSW 13 20 7 11 - - 0.0
17/10:30am 11.4 9.6 9.3 87 1.1 SW 9 17 5 9 - - 0.0
17/10:00am 10.0 8.0 8.6 91 0.7 SW 9 17 5 9 - - 0.0
17/09:30am 9.7 7.8 9.2 97 0.2 SW 9 15 5 8 - - 0.0
17/09:00am 8.1 6.3 8.0 99 0.0 SW 7 11 4 6 - - 0.0
17/08:30am 6.6 4.5 6.5 99 0.0 WSW 7 11 4 6 - - 0.0
17/08:00am 5.6 3.4 5.5 99 0.0 WSW 6 7 3 4 - - 0.0
17/07:30am 5.8 3.5 5.7 99 0.0 SW 7 11 4 6 - - 0.0
17/07:00am 5.9 3.6 5.8 99 0.0 SW 7 11 4 6 - - 0.0
17/06:30am 6.3 4.1 6.2 99 0.0 SW 7 11 4 6 - - 0.0
17/06:00am 6.7 4.6 6.6 99 0.0 WSW 7 13 4 7 - - 0.0
17/05:30am 6.8 4.3 6.7 99 0.0 SW 9 15 5 8 - - 0.0
17/05:00am 6.7 4.6 6.6 99 0.0 SW 7 9 4 5 - - 0.0
17/04:30am 6.5 4.3 6.4 99 0.0 WSW 7 11 4 6 - - 0.0
17/04:00am 6.9 4.8 6.8 99 0.0 SW 7 13 4 7 - - 0.0
17/03:30am 7.0 5.0 6.9 99 0.0 SW 7 13 4 7 - - 0.0
17/03:00am 6.8 4.9 6.7 99 0.0 SW 6 9 3 5 - - 0.0
17/02:30am 7.2 5.4 7.1 99 0.0 WSW 6 9 3 5 - - 0.0
17/02:00am 7.4 5.4 7.3 99 0.0 WSW 7 11 4 6 - - 0.0
17/01:30am 7.5 5.5 7.1 97 0.2 SW 7 9 4 5 - - 0.0
17/01:00am 8.2 6.3 7.4 95 0.4 SW 7 11 4 6 - - 0.0
17/12:30am 8.7 6.5 7.9 95 0.4 SW 9 15 5 8 - - 0.0
17/12:00am 8.4 6.1 7.6 95 0.4 SSW 9 13 5 7 - - 0.0
 
Date/Time
EST
Temp
°C
App
Temp
°C
Dew
Point
°C
Rel
Hum
%
Delta-T
°C
Wind Press
QNH
hPa
Press
MSL
hPa
Rain since
9am
mm
Dir  Spd
km/h
Gust
km/h
Spd
kts
Gust
kts
16/11:30pm 8.9 6.7 7.8 93 0.5 SW 9 13 5 7 - - 0.0
16/11:00pm 9.0 6.8 7.9 93 0.5 SW 9 13 5 7 - - 0.0
16/10:30pm 9.2 7.4 8.0 92 0.6 SW 7 11 4 6 - - 0.0
16/10:00pm 9.7 7.6 8.1 90 0.8 SW 9 11 5 6 - - 0.0
16/09:30pm 10.2 7.7 8.3 88 0.9 SSW 11 17 6 9 - - 0.0
16/09:00pm 11.0 8.2 8.6 85 1.2 SSW 13 19 7 10 - - 0.0
16/08:30pm 11.2 8.4 8.6 84 1.3 SSW 13 17 7 9 - - 0.0
16/08:00pm 11.1 9.0 8.3 83 1.4 SW 9 15 5 8 - - 0.0
16/07:30pm 11.8 9.7 8.3 79 1.7 SW 9 17 5 9 - - 0.0
16/07:00pm 12.0 10.0 8.7 80 1.6 SW 9 17 5 9 - - 0.0
16/06:30pm 11.8 9.8 8.6 81 1.6 SW 9 15 5 8 - - 0.0
16/06:00pm 11.7 10.1 8.7 82 1.5 SW 7 13 4 7 - - 0.0
16/05:30pm 12.0 10.4 8.8 81 1.6 SW 7 11 4 6 - - 0.0
16/05:00pm 12.6 11.1 9.2 80 1.7 WSW 7 11 4 6 - - 0.0
16/04:30pm 12.8 11.4 9.4 80 1.7 SW 7 11 4 6 - - 0.0
16/04:00pm 13.2 11.4 9.3 77 2.0 SW 9 15 5 8 - - 0.0
16/03:30pm 13.3 11.1 9.2 76 2.1 SW 11 17 6 9 - - 0.0
16/03:00pm 13.3 11.5 9.4 77 2.0 SW 9 13 5 7 - - 0.0
16/02:30pm 13.6 10.4 8.4 71 2.6 SW 15 22 8 12 - - 0.0
16/02:00pm 13.8 9.2 8.0 68 2.9 SSW 22 33 12 18 - - 0.0
16/01:30pm 13.9 9.7 8.3 69 2.8 SSW 20 35 11 19 - - 0.0
16/01:00pm 13.8 8.4 8.2 69 2.8 SSW 26 41 14 22 - - 0.0
16/12:30pm 13.8 7.8 8.8 72 2.5 SSW 30 43 16 23 - - 0.0
16/12:00pm 13.8 8.6 9.0 73 2.4 SSW 26 39 14 21 - - 0.0
16/11:44am 14.1 8.5 8.7 70 2.7 SSW 28 46 15 25 - - 0.0
16/11:30am 14.0 8.5 9.0 72 2.5 SSW 28 44 15 24 - - 0.0
16/11:02am 14.7 9.1 8.6 67 3.1 SSW 28 46 15 25 - - 0.0
16/11:00am 14.9 9.8 9.1 68 3.0 SSW 26 41 14 22 - - 0.0
16/10:30am 13.5 9.7 9.7 78 2.0 SSW 20 30 11 16 - - 0.0
16/10:00am 11.9 9.9 10.1 89 0.9 SW 11 15 6 8 - - 0.0
16/09:30am 10.5 8.4 9.6 94 0.5 WSW 11 19 6 10 - - 0.0
16/09:00am 10.5 8.0 9.7 95 0.4 WSW 13 22 7 12 - - 1.2
16/08:30am 9.9 7.8 9.6 98 0.2 WSW 11 19 6 10 - - 1.2
16/08:00am 9.4 7.1 9.1 98 0.1 W 11 19 6 10 - - 1.2
16/07:30am 9.7 7.4 9.1 96 0.3 WSW 11 22 6 12 - - 1.2
16/07:00am 9.9 7.7 9.4 97 0.2 WSW 11 19 6 10 - - 1.2
16/06:30am 9.8 7.2 9.3 97 0.2 WSW 13 22 7 12 - - 1.2
16/06:00am 10.1 7.5 9.2 94 0.4 WSW 13 22 7 12 - - 1.2
16/05:30am 9.8 6.7 8.7 93 0.5 WSW 15 24 8 13 - - 1.2
16/05:00am 9.2 6.4 8.4 95 0.4 WSW 13 24 7 13 - - 1.2
16/04:30am 8.7 5.8 8.1 96 0.3 W 13 22 7 12 - - 1.2
16/04:00am 8.7 5.4 7.9 95 0.4 W 15 30 8 16 - - 1.2
16/03:30am 8.6 4.8 7.5 93 0.5 W 17 28 9 15 - - 1.2
16/03:00am 8.4 4.9 7.3 93 0.5 W 15 32 8 17 - - 1.2
16/02:30am 8.5 4.7 7.4 93 0.5 WNW 17 30 9 16 - - 1.2
16/02:00am 8.4 4.2 7.3 93 0.5 WNW 19 33 10 18 - - 1.2
16/01:30am 8.5 4.6 7.0 90 0.7 WNW 17 32 9 17 - - 1.2
16/01:00am 8.5 3.9 6.5 87 0.9 WNW 20 37 11 20 - - 1.2
16/12:30am 8.7 4.2 6.3 85 1.1 WNW 19 32 10 17 - - 1.2
16/12:00am 8.7 4.2 6.3 85 1.1 W 19 30 10 16 - - 1.2
 
Date/Time
EST
Temp
°C
App
Temp
°C
Dew
Point
°C
Rel
Hum
%
Delta-T
°C
Wind Press
QNH
hPa
Press
MSL
hPa
Rain since
9am
mm
Dir  Spd
km/h
Gust
km/h
Spd
kts
Gust
kts
15/11:30pm 8.8 4.3 5.9 82 1.3 WNW 19 35 10 19 - - 1.2
15/11:00pm 8.9 4.3 5.8 81 1.4 WNW 19 33 10 18 - - 1.2
15/10:30pm 8.9 5.1 5.8 81 1.4 WNW 15 28 8 15 - - 1.2
15/10:00pm 9.0 4.8 5.9 81 1.4 W 17 30 9 16 - - 1.2
15/09:30pm 8.9 4.7 5.8 81 1.4 WNW 17 30 9 16 - - 1.2
15/09:00pm 8.7 5.3 5.8 82 1.3 WNW 13 24 7 13 - - 1.2
15/08:30pm 8.8 4.6 5.7 81 1.4 WNW 17 28 9 15 - - 1.2
15/08:00pm 8.8 5.4 5.7 81 1.4 W 13 24 7 13 - - 1.2
15/07:30pm 8.6 4.8 5.7 82 1.3 WNW 15 24 8 13 - - 1.2
15/07:00pm 8.5 5.0 5.6 82 1.3 W 13 26 7 14 - - 1.2
15/06:30pm 8.3 5.2 5.6 83 1.2 WNW 11 20 6 11 - - 1.2
15/06:00pm 8.1 4.7 5.9 86 1.0 W 13 22 7 12 - - 1.0
15/05:30pm 8.4 5.2 6.7 89 0.8 WSW 13 22 7 12 - - 0.6
15/05:00pm 9.5 5.3 5.7 77 1.7 SW 17 28 9 15 - - 0.4
15/04:30pm 10.4 7.4 6.0 74 2.0 W 11 20 6 11 - - 0.0
15/04:00pm 11.3 8.4 6.4 72 2.3 WNW 11 22 6 12 - - 0.0
15/03:30pm 11.6 7.9 4.6 62 3.2 W 13 24 7 13 - - 0.0
15/03:00pm 11.0 7.7 6.4 73 2.2 W 13 20 7 11 - - 0.0
15/02:30pm 11.1 7.8 6.3 72 2.3 W 13 24 7 13 - - 0.0
15/02:00pm 10.6 7.3 6.6 76 1.9 WNW 13 24 7 13 - - 0.0
15/01:30pm 10.4 6.7 6.5 77 1.8 W 15 26 8 14 - - 0.0
15/01:00pm 10.1 6.6 7.0 81 1.5 WNW 15 26 8 14 - - 0.0
15/12:30pm 9.5 5.6 7.1 85 1.1 WNW 17 28 9 15 - - 0.0
15/12:00pm 9.2 5.7 7.2 87 0.9 WNW 15 26 8 14 - - 0.0
15/11:30am 9.4 5.9 7.2 86 1.0 W 15 24 8 13 - - 0.0
15/11:00am 8.9 5.7 7.0 88 0.9 W 13 26 7 14 - - 0.0
15/10:30am 8.3 5.1 6.8 90 0.7 W 13 22 7 12 - - 0.0
15/10:00am 7.8 5.0 7.1 95 0.3 W 11 20 6 11 - - 0.0
15/09:30am 6.4 3.5 6.3 99 0.0 W 11 17 6 9 - - 0.0
15/09:00am 5.0 2.1 4.9 99 0.0 W 9 15 5 8 - - 0.0
15/08:30am 4.0 1.3 3.9 99 0.0 WNW 7 13 4 7 - - 0.0
15/08:00am 3.4 0.6 3.3 99 0.0 W 7 9 4 5 - - 0.0
15/07:30am 2.9 0.2 2.8 99 0.0 W 6 9 3 5 - - 0.0
15/07:00am 2.3 -0.5 2.2 99 0.0 WNW 6 9 3 5 - - 0.0
15/06:30am 2.8 0.1 2.7 99 0.0 WNW 6 9 3 5 - - 0.0
15/06:00am 2.8 -0.1 2.7 99 0.0 WNW 7 9 4 5 - - 0.0
15/05:30am 2.9 0.2 2.8 99 0.0 W 6 9 3 5 - - 0.0
15/05:00am 3.1 0.5 3.0 99 0.0 WNW 6 9 3 5 - - 0.0
15/04:30am 3.0 0.3 2.9 99 0.0 W 6 9 3 5 - - 0.0
15/04:00am 2.9 0.0 2.8 99 0.0 WNW 7 9 4 5 - - 0.0
15/03:30am 3.4 0.6 3.3 99 0.0 W 7 9 4 5 - - 0.0
15/03:00am 3.5 0.7 3.4 99 0.0 WNW 7 11 4 6 - - 0.0
15/02:30am 4.0 1.5 3.9 99 0.0 WNW 6 9 3 5 - - 0.0
15/02:00am 4.6 2.1 4.5 99 0.0 W 7 11 4 6 - - 0.0
15/01:30am 5.1 2.3 5.0 99 0.0 WSW 9 13 5 7 - - 0.0
15/01:00am 4.5 1.9 4.4 99 0.0 W 7 11 4 6 - - 0.0
15/12:30am 4.7 1.8 4.4 98 0.1 W 9 13 5 7 - - 0.0
15/12:00am 5.4 2.9 4.8 96 0.3 W 7 15 4 8 - - 0.0
 
Date/Time
EST
Temp
°C
App
Temp
°C
Dew
Point
°C
Rel
Hum
%
Delta-T
°C
Wind Press
QNH
hPa
Press
MSL
hPa
Rain since
9am
mm
Dir  Spd
km/h
Gust
km/h
Spd
kts
Gust
kts
14/11:30pm 5.8 2.9 4.9 94 0.4 WSW 9 15 5 8 - - 0.0
14/11:00pm 6.1 3.3 5.1 93 0.4 WSW 9 17 5 9 - - 0.0
14/10:30pm 6.3 3.6 5.4 94 0.4 WSW 9 13 5 7 - - 0.0
14/10:00pm 6.3 3.9 5.3 93 0.4 WSW 7 13 4 7 - - 0.0
14/09:30pm 6.5 4.1 5.1 91 0.6 WSW 7 11 4 6 - - 0.0

Other formats

Comma delimited format used in spreadsheet applications
http://www.bom.gov.au/fwo/IDV60801/IDV60801.95833.axf

JavaScript Object Notation format (JSON) in row-major order
http://www.bom.gov.au/fwo/IDV60801/IDV60801.95833.json

Data quality

Most of these data are generated automatically and are frequently updated. Quality checks on data are not normally performed. It is possible for incorrect values to appear. Refer to information at About Latest Weather Observations and please check the disclaimer before using these data.